createdAt,value
2019-04-26T00:00:53.116Z,13207
2019-04-26T00:06:10.233Z,13213
2019-04-26T00:11:34.094Z,13185
2019-04-26T00:16:48.280Z,13207
2019-04-26T00:22:04.223Z,13182
2019-04-26T00:27:21.733Z,13216
2019-04-26T00:32:36.560Z,13211
2019-04-26T00:37:51.491Z,13216
2019-04-26T00:43:05.762Z,13231
2019-04-26T00:48:23.514Z,13202
2019-04-26T00:53:37.639Z,13242
2019-04-26T01:04:03.273Z,13246
2019-04-26T01:09:18.006Z,13258
2019-04-26T01:14:32.731Z,13270
2019-04-26T01:19:46.666Z,13210
2019-04-26T01:25:02.574Z,13203
2019-04-26T01:30:19.639Z,13200
2019-04-26T01:35:32.144Z,13190
2019-04-26T01:40:47.958Z,13180
2019-04-26T01:46:02.042Z,13195
2019-04-26T01:51:16.980Z,13182
2019-04-26T01:56:31.872Z,13218
2019-04-26T02:01:47.766Z,13220
2019-04-26T02:07:02.322Z,13280
2019-04-26T02:17:29.803Z,13201
2019-04-26T02:22:46.012Z,13208
2019-04-26T02:27:59.762Z,13203
2019-04-26T02:33:16.183Z,13196
2019-04-26T02:38:37.007Z,13205
2019-04-26T02:43:53.157Z,13206
2019-04-26T02:49:07.654Z,13233
2019-04-26T02:54:21.235Z,13218
2019-04-26T02:59:40.550Z,13194
2019-04-26T03:04:56.879Z,13226
2019-04-26T03:10:16.393Z,13210
2019-04-26T03:15:37.017Z,13204
2019-04-26T03:20:51.630Z,13188
2019-04-26T03:26:12.506Z,13206
2019-04-26T03:31:27.729Z,13193
2019-04-26T03:36:44.747Z,13198
2019-04-26T03:41:57.078Z,13222
2019-04-26T03:47:11.828Z,13232
2019-04-26T03:52:25.998Z,13248
2019-04-26T03:57:46.389Z,13213
2019-04-26T04:03:06.427Z,13267
2019-04-26T04:08:21.850Z,13270
2019-04-26T04:13:44.094Z,13291
2019-04-26T04:19:06.881Z,13319
2019-04-26T04:24:27.447Z,13293
2019-04-26T04:29:54.622Z,13286
2019-04-26T04:35:11.404Z,13299
2019-04-26T04:40:27.105Z,13270
2019-04-26T04:45:49.591Z,13336
2019-04-26T04:51:03.713Z,13290
2019-04-26T04:56:18.219Z,13311
2019-04-26T05:01:33.565Z,13357
2019-04-26T05:06:51.611Z,13558
2019-04-26T05:12:11.934Z,13471
2019-04-26T05:17:29.188Z,13371
2019-04-26T05:22:47.688Z,13448
2019-04-26T05:28:03.812Z,13560
2019-04-26T05:33:20.281Z,13519
2019-04-26T05:38:35.227Z,13431
2019-04-26T05:43:52.221Z,13434
2019-04-26T05:49:09.109Z,13233
2019-04-26T05:54:22.710Z,13188
2019-04-26T05:59:37.823Z,13320
2019-04-26T06:04:55.640Z,13299
2019-04-26T06:10:13.143Z,13280
2019-04-26T07:34:03.602Z,13242
2019-04-26T07:39:21.411Z,13148
2019-04-26T07:55:10.786Z,13227
2019-04-26T08:00:28.355Z,13257
2019-04-26T08:11:02.051Z,13154
2019-04-26T08:16:24.462Z,13227
2019-04-26T08:37:36.444Z,13166
2019-04-26T08:42:59.220Z,13238
2019-04-26T08:48:29.070Z,13312
2019-04-26T09:04:17.707Z,13173
2019-04-26T16:34:49.065Z,13182
2019-04-26T16:40:03.709Z,13200
2019-04-26T16:45:25.221Z,13212
2019-04-26T16:50:46.718Z,13232
2019-04-26T16:56:01.154Z,13234
2019-04-26T17:01:23.758Z,13235
2019-04-26T17:06:47.365Z,13242
2019-04-26T17:12:02.710Z,13248
2019-04-26T17:17:17.867Z,13249
2019-04-26T17:22:51.612Z,13247
2019-04-26T17:28:17.861Z,13265
2019-04-26T17:33:39.335Z,13270
2019-04-26T17:39:01.398Z,13290
2019-04-26T17:44:28.373Z,13289
2019-04-26T17:49:44.355Z,13311
2019-04-26T17:55:00.841Z,13292
2019-04-26T18:00:28.734Z,13306
2019-04-26T18:06:01.164Z,13319
2019-04-26T18:11:24.679Z,13302
2019-04-26T18:16:37.854Z,13284
2019-04-26T18:22:00.146Z,13287
2019-04-26T18:27:14.965Z,13287
2019-04-26T18:32:44.156Z,13285
2019-04-26T18:38:04.458Z,13297
2019-04-26T18:43:30.651Z,13294
2019-04-26T18:48:47.818Z,13296
2019-04-26T18:54:05.128Z,13285
2019-04-26T18:59:29.189Z,13301
2019-04-26T19:04:49.634Z,13280
2019-04-26T19:10:05.969Z,13288
2019-04-26T19:15:22.413Z,13285
2019-04-26T19:20:37.875Z,13275
2019-04-26T19:25:54.534Z,13284
2019-04-26T19:31:12.707Z,13290
2019-04-26T19:36:33.403Z,13298
2019-04-26T19:41:58.622Z,13265
2019-04-26T19:47:14.267Z,13289
2019-04-26T19:52:29.158Z,13256
2019-04-26T19:57:54.434Z,13254
2019-04-26T20:03:16.811Z,13270
2019-04-26T20:08:44.495Z,13265
2019-04-26T20:14:04.100Z,13240
2019-04-26T20:19:37.161Z,13228
2019-04-26T20:24:57.974Z,13248
2019-04-26T20:30:22.666Z,13252
2019-04-26T20:35:42.893Z,13241
2019-04-26T20:41:02.085Z,13192
2019-04-26T21:02:08.293Z,13154
2019-04-26T21:12:35.640Z,13147
2019-04-26T21:54:21.781Z,13182
2019-04-26T21:59:44.157Z,13188
2019-04-26T22:04:58.523Z,13251
2019-04-26T22:15:23.969Z,13231
2019-04-26T22:20:38.862Z,13196
2019-04-26T22:41:37.028Z,13227
2019-04-26T22:46:54.400Z,13199
2019-04-26T23:02:49.704Z,13174
2019-04-26T23:08:05.507Z,13190
